Home > Products > Valid Products > TAF

000
FTUS41 KRLX 302300 CCA
TAFCKB
TAF COR
KCKB 302327Z 3100/3124 00000KT P6SM OVC040
     FM310300 00000KT P6SM SCT040
     FM311600 VRB03KT P6SM OVC030
     FM311700 VRB03KT 4SM -SHRA BR OVC030
     FM312200 00000KT 2SM -SHRA BR OVC020=



000
FTUS41 KRLX 302300 CCA
TAFPKB
TAF COR
KPKB 302326Z 3100/3124 00000KT P6SM OVC045
     FM311500 VRB03KT P6SM OVC030
     FM311600 VRB03KT 5SM -SHRA BR OVC025
     FM312000 VRB03KT 2SM -SHRA BR OVC020=



000
FTUS41 KRLX 302300 CCA
TAFCRW
TAF COR
KCRW 302326Z 3100/3124 00000KT P6SM OVC035
     FM311600 25004KT 5SM -SHRA BR OVC040
     FM311900 28004KT 3SM -SHRA BR OVC025
     FM312200 28004KT 2SM -SHRA BR OVC020=



000
FTUS41 KRLX 302300 CCA
TAFHTS
TAF COR
KHTS 302325Z 3100/3124 00000KT P6SM OVC040
     FM310500 00000KT P6SM BKN090
     FM311400 24004KT P6SM OVC035
     FM311500 24004KT 5SM -SHRA BR OVC035
     FM312000 23004KT 3SM -SHRA BR OVC025
     FM312200 VRB03KT 2SM -SHRA BR OVC020=



000
FTUS41 KRLX 302300
TAFCRW
TAF
KCRW 302321Z 3100/3124 00000KT P6SM OVC035
     FM311800 25004KT 5SM -SHRA BR OVC040
     FM312000 28004KT 3SM -SHRA BR OVC025
     FM312300 28004KT 2SM -SHRA BR OVC020=



000
FTUS41 KRLX 302300
TAFCKB
TAF
KCKB 302321Z 3100/3124 00000KT P6SM OVC040
     FM310300 00000KT P6SM SCT040
     FM311900 VRB03KT P6SM OVC030
     FM312000 VRB03KT 4SM -SHRA BR OVC030
     FM312300 00000KT 2SM -SHRA BR OVC020=



000
FTUS41 KRLX 302300
TAFEKN
TAF
KEKN 302321Z 3100/3124 25003KT P6SM OVC035
     FM310300 00000KT P6SM SCT060
     FM312000 VRB03KT P6SM OVC030
     FM312100 32004KT 5SM -SHRA BR OVC025
     FM312300 VRB03KT 2SM -SHRA BR OVC020=



000
FTUS41 KRLX 302300
TAFHTS
TAF
KHTS 302321Z 3100/3124 00000KT P6SM OVC040
     FM310500 00000KT P6SM BKN090
     FM311700 24004KT P6SM OVC035
     FM311800 24004KT 5SM -SHRA BR OVC035
     FM312000 23004KT 3SM -SHRA BR OVC025
     FM312200 VRB03KT 2SM -SHRA BR OVC020=



000
FTUS41 KRLX 302300
TAFBKW
TAF
KBKW 302321Z 3100/3124 05004KT P6SM SKC
     FM311200 00000KT P6SM BKN080
     FM312000 27004KT P6SM OVC030
     FM312100 27004KT 5SM -SHRA BR OVC025
     FM312300 31004KT 2SM -SHRA BR OVC015=



000
FTUS41 KRLX 302300
TAFPKB
TAF
KPKB 302321Z 3100/3124 00000KT P6SM OVC045
     FM311700 VRB03KT P6SM OVC030
     FM311800 VRB03KT 5SM -SHRA BR OVC025
     FM312100 VRB03KT 2SM -SHRA BR OVC020=



000
FTUS41 KRLX 302100 AAA
TAFEKN
TAF AMD
KEKN 302104Z 3021/3118 34004KT P6SM OVC035
     FM310400 00000KT P6SM BKN030
     FM310800 00000KT 5SM BR BKN030
     FM311400 00000KT P6SM BKN030=



000
FTUS41 KRLX 302100 AAA
TAFHTS
TAF AMD
KHTS 302104Z 3021/3118 08003KT P6SM OVC035
     FM310500 00000KT P6SM BKN030
     FM310800 00000KT 6SM BR BKN030
     FM311300 00000KT P6SM BKN030=



000
FTUS41 KRLX 302100 AAA
TAFPKB
TAF AMD
KPKB 302104Z 3021/3118 00000KT P6SM OVC045
     FM310200 00000KT P6SM BKN030
     FM310800 00000KT 6SM BR BKN030
     FM311300 00000KT P6SM OVC025=



000
FTUS41 KRLX 302100 AAA
TAFBKW
TAF AMD
KBKW 302104Z 3021/3118 36006KT P6SM SKC
     FM310100 00000KT P6SM BKN030=



000
FTUS41 KRLX 302100 AAA
TAFCRW
TAF AMD
KCRW 302104Z 3021/3118 00000KT P6SM OVC035
     FM310100 00000KT P6SM BKN030
     FM310800 00000KT 5SM BR BKN030
     FM311400 00000KT P6SM BKN030=



000
FTUS41 KRLX 302100 AAA
TAFCKB
TAF AMD
KCKB 302104Z 3021/3118 21005KT P6SM OVC045
     FM310800 00000KT 6SM BR BKN030
     FM311300 00000KT P6SM BKN030=



000
FTUS41 KRLX 301700
TAFBKW
TAF
KBKW 301727Z 3018/3118 36007KT P6SM OVC023
     FM310100 00000KT P6SM BKN030=



000
FTUS41 KRLX 301700
TAFCRW
TAF
KCRW 301727Z 3018/3118 00000KT P6SM OVC035
     FM310100 00000KT P6SM BKN030
     FM310800 00000KT 5SM BR BKN030
     FM311400 00000KT P6SM BKN030=



000
FTUS41 KRLX 301700
TAFPKB
TAF
KPKB 301727Z 3018/3118 32003KT P6SM SCT035 BKN045
     FM310200 00000KT P6SM BKN030
     FM310800 00000KT 6SM BR BKN030
     FM311300 00000KT P6SM OVC025=



000
FTUS41 KRLX 301700
TAFCKB
TAF
KCKB 301727Z 3018/3118 00000KT P6SM FEW029 OVC045
     FM310800 00000KT 6SM BR BKN030
     FM311300 00000KT P6SM BKN030=



000
FTUS41 KRLX 301700
TAFEKN
TAF
KEKN 301727Z 3018/3118 00000KT P6SM OVC035
     FM310400 00000KT P6SM BKN030
     FM310800 00000KT 5SM BR BKN030
     FM311400 00000KT P6SM BKN030=



000
FTUS41 KRLX 301700
TAFHTS
TAF
KHTS 301727Z 3018/3118 00000KT P6SM OVC040
     FM310500 00000KT P6SM BKN030
     FM310800 00000KT 6SM BR BKN030
     FM311300 00000KT P6SM BKN030=



000
FTUS41 KRLX 301700
TAFCRW
TAF
KCRW 301727Z 3018/3118 00000KT P6SM OVC035
     FM310100 00000KT P6SM BKN030
     FM310800 00000KT 5SM BR BKN030
     FM311400 00000KT P6SM BKN030=



000
FTUS41 KRLX 301700
TAFPKB
TAF
KPKB 301727Z 3018/3118 32003KT P6SM SCT035 BKN045
     FM310200 00000KT P6SM BKN030
     FM310800 00000KT 6SM BR BKN030
     FM311300 00000KT P6SM OVC025=



000
FTUS41 KRLX 301700
TAFEKN
TAF
KEKN 301727Z 3018/3118 00000KT P6SM OVC035
     FM310400 00000KT P6SM BKN030
     FM310800 00000KT 5SM BR BKN030
     FM311400 00000KT P6SM BKN030=



000
FTUS41 KRLX 301700
TAFBKW
TAF
KBKW 301727Z 3018/3118 36007KT P6SM OVC023
     FM310100 00000KT P6SM BKN030=



000
FTUS41 KRLX 301700
TAFCKB
TAF
KCKB 301727Z 3018/3118 00000KT P6SM FEW029 OVC045
     FM310800 00000KT 6SM BR BKN030
     FM311300 00000KT P6SM BKN030=



000
FTUS41 KRLX 301700
TAFHTS
TAF
KHTS 301727Z 3018/3118 00000KT P6SM OVC040
     FM310500 00000KT P6SM BKN030
     FM310800 00000KT 6SM BR BKN030
     FM311300 00000KT P6SM BKN030=



000
FTUS41 KRLX 301400 AAA
TAFBKW
TAF AMD
KBKW 301401Z 3014/3112 35007KT P6SM OVC030
     FM310900 00000KT P6SM BKN050=



000
FTUS41 KRLX 301400 AAA
TAFEKN
TAF AMD
KEKN 301401Z 3014/3112 29005KT P6SM SCT019 OVC035
     FM301800 31005KT P6SM SCT040
     FM302000 31005KT P6SM BKN040
     FM310800 00000KT 5SM BR BKN040=



000
FTUS41 KRLX 301400 AAA
TAFHTS
TAF AMD
KHTS 301401Z 3014/3112 00000KT P6SM OVC045
     FM301500 30003KT P6SM SCT050
     FM310800 00000KT 6SM BR BKN060=



000
FTUS41 KRLX 301400 AAA
TAFCRW
TAF AMD
KCRW 301401Z 3014/3112 00000KT P6SM BKN045
     FM310800 00000KT 5SM BR BKN050=



000
FTUS41 KRLX 301400 AAA
TAFPKB
TAF AMD
KPKB 301401Z 3014/3112 32004KT P6SM SCT050
     FM310200 00000KT P6SM BKN060
     FM310800 00000KT 6SM BR BKN050=



000
FTUS41 KRLX 301400 AAA
TAFCKB
TAF AMD
KCKB 301401Z 3014/3112 27004KT P6SM OVC045
     FM301800 VRB03KT P6SM SCT040
     FM310300 00000KT P6SM BKN050
     FM310800 00000KT 6SM BR BKN050=



000
FTUS41 KRLX 301100
TAFCKB
TAF
KCKB 301120Z 3012/3112 29003KT P6SM SCT026 OVC045
     FM301800 VRB03KT P6SM SCT040
     FM310300 00000KT P6SM BKN050
     FM310800 00000KT 6SM BR BKN050=



000
FTUS41 KRLX 301100
TAFHTS
TAF
KHTS 301120Z 3012/3112 00000KT P6SM OVC045
     FM301500 30003KT P6SM SCT050
     FM310800 00000KT 6SM BR BKN060=



000
FTUS41 KRLX 301100
TAFEKN
TAF
KEKN 301120Z 3012/3112 31005KT P6SM OVC045
     FM301800 31005KT P6SM SCT040
     FM302000 31005KT P6SM BKN040
     FM310800 00000KT 5SM BR BKN040=



000
FTUS41 KRLX 301100
TAFBKW
TAF
KBKW 301120Z 3012/3112 00000KT P6SM SKC
     FM310900 00000KT P6SM BKN050=



000
FTUS41 KRLX 301100
TAFCRW
TAF
KCRW 301120Z 3012/3112 00000KT P6SM OVC050
     FM301400 30004KT P6SM SCT045
     FM310800 00000KT 5SM BR BKN050=



000
FTUS41 KRLX 301100
TAFPKB
TAF
KPKB 301120Z 3012/3112 00000KT P6SM OVC050
     FM301400 31003KT P6SM SCT045
     FM310200 00000KT P6SM BKN060
     FM310800 00000KT 6SM BR BKN050=



000
FTUS41 KRLX 300900 AAA
TAFCRW
TAF AMD
KCRW 300919Z 3009/3106 00000KT P6SM BKN045
      TEMPO 3010/3012 4SM BR SCT040
     FM301300 31004KT P6SM SCT045
     FM302200 00000KT P6SM SCT050
     FM310500 00000KT 6SM BR SCT060=



000
FTUS41 KRLX 300900 AAA
TAFCKB
TAF AMD
KCKB 300919Z 3009/3106 27005KT P6SM BKN035
     FM301800 VRB03KT P6SM SCT040
     FM310200 00000KT P6SM BKN050=



000
FTUS41 KRLX 300900 AAA
TAFEKN
TAF AMD
KEKN 300919Z 3009/3106 28004KT P6SM BKN040
     FM301300 31005KT P6SM BKN035
     FM310200 00000KT P6SM SCT045
     FM310500 00000KT 6SM BR SCT040=



000
FTUS41 KRLX 300900 AAA
TAFPKB
TAF AMD
KPKB 300919Z 3009/3106 28004KT P6SM BKN045
     FM301700 VRB03KT P6SM SCT045
     FM310200 00000KT P6SM BKN060=



000
FTUS41 KRLX 300900 AAA
TAFBKW
TAF AMD
KBKW 300919Z 3009/3106 32005KT P6SM FEW050
     FM301200 VRB03KT P6SM BKN040
     FM301400 32004KT P6SM SCT040=



000
FTUS41 KRLX 300900 AAA
TAFHTS
TAF AMD
KHTS 300919Z 3009/3106 VRB03KT P6SM FEW045
     FM301700 33003KT P6SM SCT050
     FM302100 00000KT P6SM SCT050=



000
FTUS41 KRLX 300500
TAFHTS
TAF
KHTS 300535Z 3006/3106 VRB03KT P6SM FEW045
     FM301700 33003KT P6SM SCT050
     FM302100 00000KT P6SM SCT050=



000
FTUS41 KRLX 300500
TAFPKB
TAF
KPKB 300535Z 3006/3106 VRB03KT P6SM SCT040
     FM301100 00000KT P6SM BKN045
     FM301700 VRB03KT P6SM SCT045
     FM310200 00000KT P6SM BKN060=



000
FTUS41 KRLX 300500
TAFCRW
TAF
KCRW 300535Z 3006/3106 VRB03KT P6SM FEW045
     FM300900 00000KT 4SM BR SCT040
     FM301300 31004KT P6SM SCT045
     FM302200 00000KT P6SM SCT050
     FM310500 00000KT 6SM BR SCT060=



000
FTUS41 KRLX 300500
TAFBKW
TAF
KBKW 300535Z 3006/3106 32005KT P6SM FEW050
     FM301200 VRB03KT P6SM BKN040
     FM301400 32004KT P6SM SCT040=



000
FTUS41 KRLX 300500
TAFEKN
TAF
KEKN 300535Z 3006/3106 31005KT P6SM BKN040
     FM300930 30004KT 3SM BR BKN035
     FM301300 31005KT P6SM BKN035
     FM310200 00000KT P6SM SCT045
     FM310500 00000KT 6SM BR SCT040=



000
FTUS41 KRLX 300500
TAFCKB
TAF
KCKB 300535Z 3006/3106 29004KT P6SM SCT040
     FM300800 VRB03KT P6SM BKN035
     FM301800 VRB03KT P6SM SCT040
     FM310200 00000KT P6SM BKN050=



000
FTUS41 KRLX 300200 AAA
TAFPKB
TAF AMD
KPKB 300234Z 3003/3024 29006KT P6SM SCT050
     FM300500 32003KT P6SM BKN045
     FM301700 VRB03KT P6SM SCT045=



000
FTUS41 KRLX 300200 AAA
TAFCKB
TAF AMD
KCKB 300234Z 3003/3024 31004KT P6SM SCT050
     FM300500 VRB03KT P6SM BKN045
     FM301400 28003KT P6SM SCT045
     FM302200 VRB03KT P6SM SCT050=



000
FTUS41 KRLX 300200 AAA
TAFBKW
TAF AMD
KBKW 300234Z 3003/3024 31005KT P6SM SCT050
     FM300900 VRB03KT P6SM BKN040
     FM301800 31005KT P6SM SCT045=



000
FTUS41 KRLX 300200 AAA
TAFCRW
TAF AMD
KCRW 300234Z 3003/3024 29004KT P6SM SCT060
     FM300800 00000KT P6SM BKN045
      TEMPO 3008/3009 5SM BR SCT001
     FM301300 VRB03KT P6SM SCT040
     FM301500 29004KT P6SM SCT050=



000
FTUS41 KRLX 300200 AAA
TAFEKN
TAF AMD
KEKN 300234Z 3003/3024 27007KT P6SM BKN050
     FM300700 30004KT 5SM BR BKN035
      TEMPO 3008/3011 2SM BR SCT001 SCT035
     FM301300 VRB03KT P6SM BKN035=



000
FTUS41 KRLX 300200 AAA
TAFHTS
TAF AMD
KHTS 300234Z 3003/3024 29005KT P6SM FEW060
     FM300500 VRB03KT P6SM SCT050
     FM300800 00000KT 5SM BR BKN045
     FM301300 VRB03KT P6SM SCT045=



000
FTUS41 KRLX 292300
TAFCRW
TAF
KCRW 292336Z 3000/3024 29004KT P6SM FEW060
     FM300800 00000KT P6SM BKN045
      TEMPO 3008/3009 5SM BR SCT001
     FM301300 VRB03KT P6SM SCT040
     FM301500 29004KT P6SM SCT050=



000
FTUS41 KRLX 292300
TAFBKW
TAF
KBKW 292336Z 3000/3024 31005KT P6SM SCT050
     FM300900 VRB03KT P6SM BKN040
     FM301800 31005KT P6SM SCT045=



000
FTUS41 KRLX 292300
TAFEKN
TAF
KEKN 292336Z 3000/3024 27007KT P6SM BKN050
     FM300700 30004KT 5SM BR BKN035
      TEMPO 3008/3009 2SM BR SCT001 SCT035
     FM301300 VRB03KT P6SM BKN035=



000
FTUS41 KRLX 292300
TAFPKB
TAF
KPKB 292336Z 3000/3024 29006KT P6SM SCT050
     FM300400 32003KT P6SM BKN035
     FM301700 VRB03KT P6SM SCT045=



000
FTUS41 KRLX 292300
TAFCKB
TAF
KCKB 292336Z 3000/3024 27007KT P6SM SCT060
     FM300200 31004KT P6SM SCT050
     FM300500 VRB03KT P6SM BKN035
     FM301400 28003KT P6SM SCT045
     FM302200 VRB03KT P6SM SCT050=



000
FTUS41 KRLX 292300
TAFHTS
TAF
KHTS 292336Z 3000/3024 29005KT P6SM FEW060
     FM300500 VRB03KT P6SM SCT045
     FM300800 00000KT 5SM BR BKN045
     FM301300 VRB03KT P6SM SCT045=



000
FTUS41 KRLX 291700
TAFBKW
TAF
KBKW 291736Z 2918/3018 24007KT P6SM BKN017 OVC060
     FM292000 31005KT P6SM SCT050=



000
FTUS41 KRLX 291700
TAFEKN
TAF
KEKN 291736Z 2918/3018 26006KT P6SM BKN027 BKN040 OVC070
     FM292000 28011KT P6SM SCT070
     FM300700 30004KT 5SM BR SCT030
     FM300900 30004KT 1SM BR SCT001 SCT030
     FM301400 VRB03KT P6SM SCT035=



000
FTUS41 KRLX 291700
TAFCRW
TAF
KCRW 291736Z 2918/3018 VRB05KT P6SM SCT020 BKN250
     FM300000 29005KT P6SM SCT060
     FM300800 00000KT 5SM BR SCT040
     FM301300 00000KT P6SM SCT040=



000
FTUS41 KRLX 291700
TAFCKB
TAF
KCKB 291736Z 2918/3018 23012G18KT P6SM FEW024 FEW029 SCT035
     FM292300 27007KT P6SM SCT060
     FM300200 31004KT P6SM SCT040
     FM300800 VRB03KT 5SM BR BKN030
     FM301300 00000KT P6SM SCT035=



000
FTUS41 KRLX 291700
TAFPKB
TAF
KPKB 291736Z 2918/3018 25008KT P6SM SCT035 SCT045
     FM292300 29008KT P6SM BKN070
     FM300500 VRB03KT P6SM BKN030
     FM300800 00000KT 5SM BR SCT030
     FM301300 00000KT P6SM SCT035=



000
FTUS41 KRLX 291700
TAFHTS
TAF
KHTS 291736Z 2918/3018 27008KT P6SM SCT011
     FM300000 29005KT P6SM SCT060
     FM300500 00000KT P6SM SCT035
     FM300800 00000KT 5SM BR SCT030
     FM301300 00000KT P6SM SCT040=



000
FTUS41 KRLX 291400 AAB
TAFBKW
TAF AMD
KBKW 291458Z 2915/3012 26003KT P6SM FEW005 BKN035 OVC090
     FM300700 VRB03KT P6SM SCT025
     FM301000 00000KT P6SM BKN015=



000
FTUS41 KRLX 291400 AAA
TAFCRW
TAF AMD
KCRW 291458Z 2915/3012 23003KT P6SM BKN080 BKN130
     FM300000 29006KT P6SM SCT050
     FM300200 32004KT P6SM BKN045
     FM300800 00000KT 5SM BR SCT040=



000
FTUS41 KRLX 291400 AAA
TAFPKB
TAF AMD
KPKB 291458Z 2915/3012 VRB05KT P6SM FEW012
     FM291800 26014G21KT P6SM SCT060
     FM292300 29010G15KT P6SM BKN040
     FM300200 29006KT P6SM BKN040
     FM300800 00000KT 5SM BR SCT030=



000
FTUS41 KRLX 291400 AAA
TAFEKN
TAF AMD
KEKN 291458Z 2915/3012 19004KT P6SM -RA BKN022 OVC080
     FM291700 30007KT P6SM BKN040
     FM300700 31004KT 5SM BR BKN030
     FM300900 29004KT 1SM BR SCT001 SCT030=



000
FTUS41 KRLX 291400 AAA
TAFHTS
TAF AMD
KHTS 291458Z 2915/3012 22004KT P6SM FEW010
     FM291700 26010G15KT P6SM SCT130
     FM300100 30005KT P6SM SCT040
     FM300800 00000KT 5SM BR SCT030=



000
FTUS41 KRLX 291400 AAA
TAFCKB
TAF AMD
KCKB 291458Z 2915/3012 20006KT P6SM BKN020 OVC030
     FM291600 24010G15KT P6SM BKN120
     FM292300 28008KT P6SM BKN040
     FM301000 00000KT 5SM BR SCT030=



000
FTUS41 KRLX 291300 AAA
TAFBKW
TAF AMD
KBKW 291305Z 2913/3012 29007KT 6SM -SHRA BR SCT008 OVC040
      TEMPO 2913/2914 3SM -SHRA BKN008
     FM291500 30011G17KT P6SM BKN250
     FM300700 VRB03KT P6SM SCT025
     FM301000 00000KT P6SM BKN015=



000
FTUS41 KRLX 291100
TAFBKW
TAF
KBKW 291120Z 2912/3012 29007KT 5SM -SHRA BR SCT008 OVC020
      TEMPO 2912/2914 3SM -SHRA BKN008
     FM291500 30011G17KT P6SM BKN250
     FM300700 VRB03KT P6SM SCT025
     FM301000 00000KT P6SM BKN015=



000
FTUS41 KRLX 291100
TAFCRW
TAF
KCRW 291120Z 2912/3012 25006KT 6SM SHRA BKN045
     FM291500 25009KT P6SM SCT150
     FM300000 29006KT P6SM SCT050
     FM300200 32004KT P6SM BKN045
     FM300800 00000KT 5SM BR SCT040=



000
FTUS41 KRLX 291100
TAFPKB
TAF
KPKB 291120Z 2912/3012 23005KT P6SM BKN140
     FM291800 26014G21KT P6SM SCT060
     FM292300 29010G15KT P6SM BKN040
     FM300200 29006KT P6SM BKN040
     FM300800 00000KT 5SM BR SCT030=



000
FTUS41 KRLX 291100
TAFCKB
TAF
KCKB 291120Z 2912/3012 23006KT P6SM OVC080
     FM291600 24010G15KT P6SM BKN120
     FM292300 28008KT P6SM BKN040
     FM301000 00000KT 5SM BR SCT030=



000
FTUS41 KRLX 291100
TAFHTS
TAF
KHTS 291120Z 2912/3012 22004KT P6SM BKN060
     FM291700 26010G15KT P6SM SCT130
     FM300100 30005KT P6SM SCT040
     FM300800 00000KT 5SM BR SCT030=



000
FTUS41 KRLX 291100
TAFEKN
TAF
KEKN 291120Z 2912/3012 27007KT P6SM SCT015 OVC040
      TEMPO 2912/2915 5SM -SHRA BKN015
     FM291700 30007KT P6SM BKN040
     FM300700 31004KT 5SM BR BKN030
     FM300900 29004KT 1SM BR SCT001 SCT030=



000
FTUS41 KRLX 291000 AAB
TAFCRW
TAF AMD
KCRW 291056Z 2911/3006 24005KT 6SM -SHRA BR SCT010 OVC035
      TEMPO 2911/2912 4SM -SHRA BKN005
     FM291200 VRB03KT P6SM BKN035
     FM291400 26008KT P6SM SCT040 BKN120
     FM300200 30004KT P6SM BKN040=



000
FTUS41 KRLX 290800 AAA
TAFCRW
TAF AMD
KCRW 290836Z 2909/3006 24005KT 6SM -SHRA BR SCT010 OVC035
      TEMPO 2909/2911 4SM -SHRA BKN025
     FM291200 VRB03KT P6SM BKN035
     FM291400 26008KT P6SM SCT040 BKN120
     FM300200 30004KT P6SM BKN040=



000
FTUS41 KRLX 290800 AAA
TAFPKB
TAF AMD
KPKB 290836Z 2909/3006 25005KT P6SM BKN070
     FM291400 25006KT P6SM BKN080
     FM291700 26010G17KT P6SM SCT060
     FM292300 28008G13KT P6SM BKN040
     FM300100 29005KT P6SM BKN040
     FM300500 00000KT P6SM BKN030=



000
FTUS41 KRLX 290800 AAA
TAFCKB
TAF AMD
KCKB 290836Z 2909/3006 23007KT 6SM BR OVC040
     FM291000 25005KT P6SM BKN070
     FM291700 25010G17KT P6SM SCT060
     FM300000 28007KT P6SM BKN040
     FM300400 VRB03KT P6SM BKN035=



000
FTUS41 KRLX 290800 AAA
TAFHTS
TAF AMD
KHTS 290836Z 2909/3006 27004KT 6SM BR SCT010 OVC050
     FM291400 25005KT P6SM SCT035 BKN200
     FM291700 26009G15KT P6SM SCT130
     FM300100 29004KT P6SM SCT040
     FM300400 00000KT P6SM SCT035=



000
FTUS41 KRLX 290800 AAA
TAFEKN
TAF AMD
KEKN 290836Z 2909/3006 VRB03KT 6SM -SHRA BR OVC015
      TEMPO 2909/2911 2SM -SHRA OVC010
     FM291100 27005KT P6SM OVC045
     FM291800 27010G17KT P6SM SCT060
     FM300000 29007KT P6SM BKN040
     FM300200 29007KT P6SM BKN030=



000
FTUS41 KRLX 290800 AAA
TAFBKW
TAF AMD
KBKW 290836Z 2909/3006 33006KT 6SM -SHRA BR SCT008 OVC020
      TEMPO 2909/2912 3SM -SHRA OVC005
     FM291400 27006KT P6SM BKN035
     FM292000 29009G15KT P6SM BKN250
     FM300100 31007KT P6SM SCT050
     FM300500 32007KT P6SM BKN200=



000
FTUS41 KRLX 290500
TAFBKW
TAF
KBKW 290524Z 2906/3006 28006KT P6SM OVC035
     FM290700 30006KT 5SM -SHRA BR OVC025
      TEMPO 2907/2911 2SM -SHRA OVC010
     FM291300 27006KT P6SM BKN035
     FM292000 28009G15KT P6SM BKN250
     FM300100 31007KT P6SM SCT050
     FM300500 32007KT P6SM BKN200=



000
FTUS41 KRLX 290500
TAFCKB
TAF
KCKB 290524Z 2906/3006 27007KT 6SM BR OVC040
      TEMPO 2907/2909 4SM -SHRA BR BKN030
     FM291000 25005KT P6SM BKN070
     FM291700 25010G17KT P6SM SCT060
     FM300000 28007KT P6SM BKN040
     FM300400 VRB03KT P6SM BKN035=



000
FTUS41 KRLX 290500
TAFPKB
TAF
KPKB 290524Z 2906/3006 28005KT P6SM BKN070
     FM291400 25006KT P6SM BKN200
     FM291700 26010G17KT P6SM SCT060
     FM292300 28008G13KT P6SM BKN040
     FM300100 29005KT P6SM BKN040
     FM300500 00000KT P6SM BKN030=



000
FTUS41 KRLX 290500
TAFCRW
TAF
KCRW 290524Z 2906/3006 28005KT 4SM -SHRA BR SCT010 OVC025
      TEMPO 2907/2910 2SM -SHRA BKN020
     FM291200 VRB03KT P6SM BKN025
     FM291400 26008KT P6SM SCT040 BKN120
     FM300200 30004KT P6SM BKN040=



000
FTUS41 KRLX 290500
TAFHTS
TAF
KHTS 290524Z 2906/3006 27004KT 6SM BR OVC050
      TEMPO 2907/2910 3SM -SHRA BKN030
     FM291400 25005KT P6SM SCT035 BKN200
     FM291700 26009G15KT P6SM SCT130
     FM300100 29004KT P6SM SCT040
     FM300400 00000KT P6SM SCT035=



000
FTUS41 KRLX 290500
TAFEKN
TAF
KEKN 290524Z 2906/3006 VRB03KT 6SM -SHRA BR OVC015
      TEMPO 2907/2911 2SM -SHRA OVC010
     FM291100 27005KT P6SM OVC045
     FM291800 27010G17KT P6SM SCT060
     FM300000 29007KT P6SM BKN040
     FM300200 29007KT P6SM BKN030=



000
FTUS41 KRLX 290400 AAB
TAFCKB
TAF AMD
KCKB 290423Z 2904/2924 26006KT 5SM -SHRA BR BKN015
      TEMPO 2904/2907 2SM -SHRA BR BKN007
     FM290700 27006KT 6SM BR BKN035
     FM290900 26005KT P6SM BKN050
     FM291200 25005KT P6SM BKN080
     FM291500 25008G17KT P6SM SCT050
     FM292300 27008KT P6SM BKN040=



000
FTUS41 KRLX 290400 AAB
TAFCKB
TAF AMD
KCKB 290423Z 2904/2924 26006KT 5SM -SHRA BR BKN015
      TEMPO 2904/2907 2SM -SHRA BR BKN007
     FM290700 27006KT 6SM BR BKN035
     FM290900 26005KT P6SM BKN050
     FM291200 25005KT P6SM BKN080
     FM291500 25008G17KT P6SM SCT050
     FM292300 27008KT P6SM BKN040=



000
FTUS41 KRLX 290200 AAB
TAFCRW
TAF AMD
KCRW 290233Z 2903/2924 27006KT 5SM -SHRA VCTS BKN014 OVC040CB
      TEMPO 2903/2905 29008G15KT 2SM SHRA BR BKN010 OVC025
     FM290500 28007KT 4SM -SHRA BR SCT010 OVC020
     FM290800 28004KT 6SM -RA BR BKN035 OVC070
     FM291200 VRB03KT P6SM BKN050
     FM291400 26006KT P6SM SCT050 BKN120
     FM291700 26008G15KT P6SM SCT045
     FM292300 29007KT P6SM SCT045=



000
FTUS41 KRLX 290100 AAA
TAFCKB
TAF AMD
KCKB 290154Z 2902/2924 22008G15KT 5SM -SHRA BKN040
      TEMPO 2902/2904 28008G15KT 2SM SHRA BR BKN020
     FM290400 26006KT 5SM -SHRA BR BKN025
     FM290700 27006KT 6SM BR BKN035
     FM290900 26005KT P6SM BKN050
     FM291200 25005KT P6SM BKN080
     FM291500 25008G17KT P6SM SCT050
     FM292300 27008KT P6SM BKN040=



000
FTUS41 KRLX 290100 AAA
TAFEKN
TAF AMD
KEKN 290154Z 2902/2924 25011G16KT P6SM BKN050
     FM290300 22007KT 5SM -SHRA BKN035
     FM290400 27006KT 4SM -SHRA BR BKN025
      TEMPO 2904/2906 28008G15KT 2SM SHRA BR BKN015
     FM290700 26005KT 5SM -SHRA BR OVC020
     FM291000 29006KT 6SM BR BKN040
     FM291400 26007KT P6SM SCT050 BKN100
     FM291600 27010G18KT P6SM SCT050
     FM292300 28008KT P6SM BKN040=



000
FTUS41 KRLX 290100 AAA
TAFBKW
TAF AMD
KBKW 290154Z 2902/2924 23008G18KT P6SM SCT050
     FM290400 24005KT 5SM -SHRA BKN035
      TEMPO 2904/2906 28008G15KT 2SM SHRA BKN020
     FM290600 28007KT 4SM -SHRA BR OVC018
      TEMPO 2906/2909 2SM BR BKN010
     FM291000 30006KT 6SM -RA BR OVC025
     FM291300 30005KT P6SM OVC035
     FM291600 28009G15KT P6SM SCT050
     FM292300 30008KT P6SM SCT050=



000
FTUS41 KRLX 290100 AAA
TAFCRW
TAF AMD
KCRW 290154Z 2902/2924 27006KT 5SM -SHRA VCTS SCT025CB OVC050
      TEMPO 2902/2904 29008G15KT 2SM SHRA BR BKN020
     FM290400 28007KT 4SM -SHRA BR SCT015 OVC025
     FM290800 28004KT 6SM -RA BR BKN035 OVC070
     FM291200 VRB03KT P6SM BKN050
     FM291400 26006KT P6SM SCT050 BKN120
     FM291700 26008G15KT P6SM SCT045
     FM292300 29007KT P6SM SCT045=



000
FTUS41 KRLX 290100 AAA
TAFBKW
TAF AMD
KBKW 290154Z 2902/2924 23008G18KT P6SM SCT050
     FM290400 24005KT 5SM -SHRA BKN035
      TEMPO 2904/2906 28008G15KT 2SM SHRA BKN020
     FM290600 28007KT 4SM -SHRA BR OVC018
      TEMPO 2906/2909 2SM BR BKN010
     FM291000 30006KT 6SM -RA BR OVC025
     FM291300 30005KT P6SM OVC035
     FM291600 28009G15KT P6SM SCT050
     FM292300 30008KT P6SM SCT050=



000
FTUS41 KRLX 290100 AAA
TAFPKB
TAF AMD
KPKB 290154Z 2902/2924 27006KT 6SM BR BKN035
     FM290300 28005KT P6SM BKN050 OVC070
      TEMPO 2903/2905 -RA
     FM291100 25004KT P6SM SCT100
     FM291500 26008G15KT P6SM SCT050
     FM292000 27008G17KT P6SM BKN045=



000
FTUS41 KRLX 290100 AAA
TAFEKN
TAF AMD
KEKN 290154Z 2902/2924 25011G16KT P6SM BKN050
     FM290300 22007KT 5SM -SHRA BKN035
     FM290400 27006KT 4SM -SHRA BR BKN025
      TEMPO 2904/2906 28008G15KT 2SM SHRA BR BKN015
     FM290700 26005KT 5SM -SHRA BR OVC020
     FM291000 29006KT 6SM BR BKN040
     FM291400 26007KT P6SM SCT050 BKN100
     FM291600 27010G18KT P6SM SCT050
     FM292300 28008KT P6SM BKN040=



000
FTUS41 KRLX 290100 AAA
TAFCKB
TAF AMD
KCKB 290154Z 2902/2924 22008G15KT 5SM -SHRA BKN040
      TEMPO 2902/2904 28008G15KT 2SM SHRA BR BKN020
     FM290400 26006KT 5SM -SHRA BR BKN025
     FM290700 27006KT 6SM BR BKN035
     FM290900 26005KT P6SM BKN050
     FM291200 25005KT P6SM BKN080
     FM291500 25008G17KT P6SM SCT050
     FM292300 27008KT P6SM BKN040=



000
FTUS41 KRLX 290100 AAA
TAFPKB
TAF AMD
KPKB 290154Z 2902/2924 27006KT 6SM BR BKN035
     FM290300 28005KT P6SM BKN050 OVC070
      TEMPO 2903/2905 -RA
     FM291100 25004KT P6SM SCT100
     FM291500 26008G15KT P6SM SCT050
     FM292000 27008G17KT P6SM BKN045=



000
FTUS41 KRLX 290100 AAA
TAFHTS
TAF AMD
KHTS 290154Z 2902/2924 29007KT 6SM -SHRA BR OVC030
      TEMPO 2903/2907 4SM SHRA BR BKN020
     FM290700 29005KT P6SM BKN050
     FM291200 25004KT P6SM FEW050 BKN100
     FM291500 26009G15KT P6SM SCT050
     FM292300 29007KT P6SM SCT045=



000
FTUS41 KRLX 290100 AAA
TAFCRW
TAF AMD
KCRW 290154Z 2902/2924 27006KT 5SM -SHRA VCTS SCT025CB OVC050
      TEMPO 2902/2904 29008G15KT 2SM SHRA BR BKN020
     FM290400 28007KT 4SM -SHRA BR SCT015 OVC025
     FM290800 28004KT 6SM -RA BR BKN035 OVC070
     FM291200 VRB03KT P6SM BKN050
     FM291400 26006KT P6SM SCT050 BKN120
     FM291700 26008G15KT P6SM SCT045
     FM292300 29007KT P6SM SCT045=



000
FTUS41 KRLX 290100 AAA
TAFHTS
TAF AMD
KHTS 290154Z 2902/2924 29007KT 6SM -SHRA BR OVC030
      TEMPO 2903/2907 4SM SHRA BR BKN020
     FM290700 29005KT P6SM BKN050
     FM291200 25004KT P6SM FEW050 BKN100
     FM291500 26009G15KT P6SM SCT050
     FM292300 29007KT P6SM SCT045=



000
FTUS41 KRLX 282300
TAFPKB
TAF
KPKB 282339Z 2900/2924 25008KT 5SM -SHRA VCTS BKN030CB
      TEMPO 2900/2901 29008G15KT 2SM SHRA BR BKN020
     FM290200 27006KT 6SM BR BKN035
     FM290300 28005KT P6SM BKN050
     FM291100 25004KT P6SM SCT100
     FM291500 26008G15KT P6SM SCT050
     FM292000 27008G17KT P6SM BKN045=



000
FTUS41 KRLX 282300
TAFEKN
TAF
KEKN 282339Z 2900/2924 25011G16KT P6SM BKN050
     FM290100 22007KT 5SM -SHRA BKN035
     FM290200 27006KT 4SM -SHRA BR BKN025
      TEMPO 2902/2904 28008G15KT 2SM SHRA BR BKN015
     FM290700 26005KT 5SM -SHRA BR OVC020
     FM291000 29006KT 6SM BR BKN040
     FM291400 26007KT P6SM SCT050 BKN100
     FM291600 27010G18KT P6SM SCT050
     FM292300 28008KT P6SM BKN040=



000
FTUS41 KRLX 282300
TAFCKB
TAF
KCKB 282339Z 2900/2924 22008G15KT 5SM -SHRA BKN040
      TEMPO 2901/2902 28008G15KT 2SM SHRA BR BKN020
     FM290300 26006KT 5SM -SHRA BR BKN025
     FM290600 27006KT 6SM BR BKN035
     FM290900 26005KT P6SM BKN050
     FM291200 25005KT P6SM BKN080
     FM291500 25008G17KT P6SM SCT050
     FM292300 27008KT P6SM BKN040=



000
FTUS41 KRLX 282300
TAFCRW
TAF
KCRW 282339Z 2900/2924 22008G18KT 5SM -SHRA VCTS SCT025CB OVC050
      TEMPO 2900/2902 29008G15KT 2SM SHRA BR BKN020
     FM290200 28007KT 5SM -SHRA BR SCT015 OVC025
     FM290600 28004KT 6SM BR BKN035
     FM291000 VRB03KT P6SM BKN050
     FM291400 26006KT P6SM SCT050 BKN120
     FM291700 26008G15KT P6SM SCT045
     FM292300 29007KT P6SM SCT045=



000
FTUS41 KRLX 282300
TAFBKW
TAF
KBKW 282339Z 2900/2924 23008G18KT P6SM SCT050
     FM290200 24005KT 5SM -SHRA BKN035
      TEMPO 2902/2904 28008G15KT 2SM SHRA BKN020
     FM290400 28007KT 4SM -SHRA BR OVC018
      TEMPO 2904/2907 2SM BR BKN010
     FM291000 30006KT 6SM BR OVC025
     FM291300 30005KT P6SM OVC035
     FM291600 28009G15KT P6SM SCT050
     FM292300 30008KT P6SM SCT050=



000
FTUS41 KRLX 282300
TAFHTS
TAF
KHTS 282339Z 2900/2924 26008KT 5SM -SHRA BR SCT020 OVC030
      TEMPO 2900/2901 30010G16KT 1 1/2SM SHRA BR BKN020
     FM290200 29007KT 6SM -SHRA BR BKN030
     FM290400 29005KT P6SM BKN050
     FM291200 25004KT P6SM FEW050 BKN100
     FM291500 26009G15KT P6SM SCT050
     FM292300 29007KT P6SM SCT045=



000
FTUS41 KRLX 282200 AAA
TAFCRW
TAF AMD
KCRW 282217Z 2822/2918 22010G18KT P6SM BKN050
     FM282300 22008G18KT 5SM -SHRA OVC050
      TEMPO 2900/2901 28012KT 2SM SHRA BR BKN025
     FM290300 28007KT 5SM -SHRA BR SCT015 OVC025
     FM290700 28004KT 6SM BR BKN035
     FM291000 VRB03KT P6SM BKN045
     FM291700 26006KT P6SM SCT045=



000
FTUS41 KRLX 282100 AAD
TAFHTS
TAF AMD
KHTS 282120Z 2821/2918 22011G21KT 6SM -SHRA VCTS SCT035CB BKN050
      TEMPO 2822/2823 2SM SHRA BR BKN025
     FM282300 26008KT 5SM -SHRA BR OVC030
      TEMPO 2823/2901 4SM BR BKN020
     FM290200 27007KT 5SM BR BKN030
     FM290600 29005KT P6SM BKN050
     FM291200 25004KT P6SM SCT150=



000
FTUS41 KRLX 281900 AAC
TAFHTS
TAF AMD
KHTS 281957Z 2820/2918 22011G21KT 5SM -SHRA VCTS BKN035CB BKN050
      TEMPO 2820/2823 2SM SHRA BR BKN025
     FM282300 26008KT 5SM -SHRA BR OVC030
     FM290300 27007KT 5SM BR BKN030
     FM290600 29005KT P6SM BKN050
     FM291200 25004KT P6SM SCT150=



000
FTUS41 KRLX 281900 AAB
TAFPKB
TAF AMD
KPKB 281942Z 2820/2918 22011G25KT P6SM VCTS BKN040CB
     FM282030 23011G21KT 5SM -SHRA BKN035
      TEMPO 2821/2823 2SM SHRA BR BKN020
     FM282300 24008KT 5SM -SHRA BR BKN030
     FM290500 26007KT 5SM BR BKN025
     FM290600 28005KT P6SM BKN040
     FM291100 25004KT P6SM SCT040=



000
FTUS41 KRLX 281800 AAA
TAFBKW
TAF AMD
KBKW 281837Z 2819/2918 26012G22KT P6SM SCT050 SCT200
     FM282100 22011G21KT P6SM BKN050
     FM282300 22008KT 5SM -SHRA BKN040
     FM290400 24005KT 5SM -SHRA BKN030
     FM290600 26005KT 5SM -SHRA BR BKN020
     FM290800 29006KT 5SM -SHRA BR BKN025
     FM291000 30006KT 6SM BR OVC025
     FM291200 30005KT P6SM OVC035=



000
FTUS41 KRLX 281800 AAA
TAFCKB
TAF AMD
KCKB 281836Z 2819/2918 24013G28KT P6SM SCT040 BKN100
     FM282300 22009G19KT 5SM -SHRA BKN040
     FM290100 23006KT 5SM -SHRA BKN030
     FM290800 27005KT 5SM BR BKN025
     FM290900 26005KT 6SM BR BKN035
     FM291000 25005KT P6SM BKN040=



000
FTUS41 KRLX 281800 AAB
TAFHTS
TAF AMD
KHTS 281835Z 2819/2918 20010G22KT P6SM VCTS BKN040CB
     FM282000 22011G21KT 5SM -SHRA BKN035
     FM282300 24007KT 5SM -SHRA BR BKN030
     FM290500 27006KT 5SM BR BKN025
     FM290600 29005KT P6SM BKN040
     FM291200 25004KT P6SM SCT150=



000
FTUS41 KRLX 281800 AAA
TAFPKB
TAF AMD
KPKB 281834Z 2819/2918 22011G25KT P6SM VCTS BKN040CB
     FM282100 23011G21KT P6SM -SHRA BKN035
     FM282300 24008KT 5SM -SHRA BR BKN030
     FM290500 26007KT 5SM BR BKN025
     FM290600 28005KT P6SM BKN040
     FM291100 25004KT P6SM SCT040=



000
FTUS41 KRLX 281700 AAA
TAFHTS
TAF AMD
KHTS 281744Z 2818/2918 23012G22KT P6SM VCTS BKN040CB
     FM282000 22011G21KT 5SM -SHRA BKN035
     FM282300 24007KT 5SM -SHRA BR BKN030
     FM290500 27006KT 5SM BR BKN025
     FM290600 29005KT P6SM BKN040
     FM291200 25004KT P6SM SCT150=



000
FTUS41 KRLX 281700 RRA
TAFEKN
TAF
KEKN 281741Z 2818/2918 29010G20KT P6SM SCT050
     FM282000 25011G16KT P6SM BKN050
     FM290000 22007KT 5SM -SHRA BKN035
     FM290500 25005KT 5SM -SHRA BR OVC025
     FM290700 26005KT 5SM -SHRA BR OVC020
     FM291000 29006KT 6SM BR OVC025
     FM291100 27005KT P6SM OVC035
     FM291200 26005KT P6SM BKN050=



000
FTUS41 KRLX 281700
TAFEKN
TAF
KEKN 281740Z 2818/2918 29012G22KT P6SM SCT050
     FM282000 25011G16KT P6SM BKN050
     FM290000 22007KT 5SM -SHRA BKN035
     FM290500 25005KT 5SM -SHRA BR OVC025
     FM290700 26005KT 5SM -SHRA BR OVC020
     FM291000 29006KT 6SM BR OVC025
     FM291100 27005KT P6SM OVC035
     FM291200 26005KT P6SM BKN050=



000
FTUS41 KRLX 281700
TAFEKN
TAF
KEKN 281738Z 2818/2918 28012G22KT P6SM SCT050
     FM282000 25011G16KT P6SM BKN050
     FM290000 22007KT 5SM -SHRA BKN035
     FM290500 25005KT 5SM -SHRA BR OVC025
     FM290700 26005KT 5SM -SHRA BR OVC020
     FM291000 29006KT 6SM BR OVC025
     FM291100 27005KT P6SM OVC035
     FM291200 26005KT P6SM BKN050=



000
FTUS41 KRLX 281700
TAFCRW
TAF
KCRW 281723Z 2818/2918 22012G22KT P6SM BKN050
     FM282200 22008G18KT 5SM -SHRA BKN050
     FM290600 28005KT 5SM BR OVC025
     FM290800 28004KT 6SM BR BKN035
     FM291000 VRB03KT P6SM BKN045
     FM291700 26006KT P6SM BKN250=



000
FTUS41 KRLX 281700
TAFCKB
TAF
KCKB 281723Z 2818/2918 24013G18KT P6SM SCT040 BKN100
     FM282300 22009G19KT 5SM -SHRA BKN040
     FM290100 23006KT 5SM -SHRA BKN030
     FM290800 27005KT 5SM BR BKN025
     FM290900 26005KT 6SM BR BKN035
     FM291000 25005KT P6SM BKN040=



000
FTUS41 KRLX 281700
TAFBKW
TAF
KBKW 281723Z 2818/2918 23012G22KT P6SM SCT050 SCT200
     FM282100 22011G21KT P6SM BKN050
     FM282300 22008KT 5SM -SHRA BKN040
     FM290400 24005KT 5SM -SHRA BKN030
     FM290600 26005KT 5SM -SHRA BR BKN020
     FM290800 29006KT 5SM -SHRA BR BKN025
     FM291000 30006KT 6SM BR OVC025
     FM291200 30005KT P6SM OVC035=



000
FTUS41 KRLX 281700
TAFHTS
TAF
KHTS 281723Z 2818/2918 22012G22KT P6SM BKN040
     FM282000 22011G21KT 5SM -SHRA BKN035
     FM282300 24007KT 5SM -SHRA BR BKN030
     FM290500 27006KT 5SM BR BKN025
     FM290600 29005KT P6SM BKN040
     FM291200 25004KT P6SM SCT150=



000
FTUS41 KRLX 281700
TAFEKN
TAF
KEKN 281723Z 2818/2918 27012G22KT P6SM SCT050
     FM282000 23011G16KT P6SM BKN050
     FM290000 22007KT 5SM -SHRA BKN035
     FM290500 25005KT 5SM -SHRA BR OVC025
     FM290700 26005KT 5SM -SHRA BR OVC020
     FM291000 29006KT 6SM BR OVC025
     FM291100 27005KT P6SM OVC035
     FM291200 26005KT P6SM BKN050=



000
FTUS41 KRLX 281700
TAFPKB
TAF
KPKB 281723Z 2818/2918 23013G23KT P6SM BKN040
     FM282100 23011G21KT P6SM -SHRA BKN035
     FM282300 24008KT 5SM -SHRA BR BKN030
     FM290500 26007KT 5SM BR BKN025
     FM290600 28005KT P6SM BKN040
     FM291100 25004KT P6SM SCT040=



000
FTUS41 KRLX 281400 AAB
TAFCRW
TAF AMD
KCRW 281459Z 2815/2912 21012G23KT P6SM SCT040
     FM281900 22011G19KT P6SM BKN050
     FM282100 24005KT 5SM BR VCTS OVC035CB
     FM290000 26004KT 3SM SHRA BR OVC025=



000
FTUS41 KRLX 281400 AAB
TAFBKW
TAF AMD
KBKW 281457Z 2815/2912 22010G16KT P6SM BKN040
     FM282200 22006KT 6SM BR VCTS BKN040CB
     FM290100 24006KT 3SM -SHRA BR VCTS BKN025CB=



000
FTUS41 KRLX 281400 AAB
TAFCKB
TAF AMD
KCKB 281457Z 2815/2912 21008G15KT P6SM BKN250
     FM281800 21012G20KT P6SM BKN050
     FM282200 23006KT 5SM BR VCTS BKN030CB
     FM290000 25005KT 3SM SHRA BR OVC025=



000
FTUS41 KRLX 281400 AAA
TAFCRW
TAF AMD
KCRW 281428Z 2814/2912 21008KT P6SM SCT120 BKN250
     FM281600 22012G23KT P6SM SCT040
     FM281900 22011G19KT P6SM BKN050
     FM282100 24005KT 5SM BR VCTS OVC035CB
     FM290000 26004KT 3SM SHRA BR OVC025=



000
FTUS41 KRLX 281400 AAA
TAFEKN
TAF AMD
KEKN 281428Z 2814/2912 20007KT P6SM SCT040 SCT250
     FM281800 23008KT P6SM BKN040
     FM282200 23007KT P6SM VCTS OVC040CB
     FM290100 24006KT 4SM SHRA BR VCTS OVC025CB=



000
FTUS41 KRLX 281400 AAA
TAFPKB
TAF AMD
KPKB 281428Z 2814/2912 21011G19KT P6SM SCT050 BKN200
     FM281600 22015G25KT P6SM BKN050
     FM282100 22010G16KT 6SM BR BKN035
     FM290100 25006KT 3SM -TSRA BR BKN035CB
     FM290300 27005KT 6SM -SHRA BR BKN045=



000
FTUS41 KRLX 281400 AAA
TAFHTS
TAF AMD
KHTS 281428Z 2814/2912 20008KT P6SM SCT050 BKN200
     FM281500 21013G22KT P6SM BKN040
     FM281800 24008KT 5SM SHRA BR BKN030
     FM290100 25006KT 3SM SHRA BR VCTS BKN025CB
     FM290300 28005KT 5SM BR BKN035=



000
FTUS41 KRLX 281400 AAA
TAFBKW
TAF AMD
KBKW 281428Z 2814/2912 23011KT P6SM SCT040 SCT250
     FM281600 22010G16KT P6SM BKN040
     FM282200 22006KT 6SM BR VCTS BKN040CB
     FM290100 24006KT 3SM -SHRA BR VCTS BKN025CB=



000
FTUS41 KRLX 281400 AAA
TAFCKB
TAF AMD
KCKB 281428Z 2814/2912 21009KT P6SM SCT050 BKN250
     FM281600 21008G15KT P6SM BKN250
     FM281800 21012G20KT P6SM BKN050
     FM282200 23006KT 5SM BR VCTS BKN030CB
     FM290000 25005KT 3SM SHRA BR OVC025=



000
FTUS41 KRLX 281100
TAFEKN
TAF
KEKN 281120Z 2812/2912 23007KT P6SM SCT250
     FM281300 23008KT P6SM FEW060
     FM290200 23007KT P6SM VCTS OVC040CB
     FM290500 24006KT 4SM SHRA BR VCTS OVC025CB=



000
FTUS41 KRLX 281100
TAFPKB
TAF
KPKB 281120Z 2812/2912 19007KT P6SM SCT140 BKN200
     FM281400 21011G19KT P6SM SCT060
     FM281600 22015G25KT P6SM BKN050
     FM282100 22010G16KT 6SM BR BKN035
     FM290100 25006KT 3SM -TSRA BR BKN035CB
     FM290300 27005KT 6SM -SHRA BR BKN045=



000
FTUS41 KRLX 281100
TAFCKB
TAF
KCKB 281120Z 2812/2912 20007KT P6SM SCT140 BKN250
     FM281500 21008G15KT P6SM BKN250
     FM281800 21012G20KT P6SM BKN050
     FM290100 23006KT 5SM BR VCTS BKN030CB
     FM290300 25005KT 3SM SHRA BR OVC025=



000
FTUS41 KRLX 281100
TAFHTS
TAF
KHTS 281120Z 2812/2912 20008KT P6SM SCT140 BKN200
     FM281500 21013G22KT P6SM SCT040
     FM281800 22013G22KT P6SM BKN045
     FM282300 24008KT 5SM SHRA BR BKN030
     FM290100 25006KT 3SM SHRA BR VCTS BKN025CB
     FM290300 28005KT 5SM BR BKN035=



000
FTUS41 KRLX 281100
TAFCRW
TAF
KCRW 281120Z 2812/2912 19004KT P6SM SCT140 BKN250
     FM281300 21008KT P6SM SCT120
     FM281600 22012G23KT P6SM SCT040
     FM282300 22011G19KT P6SM BKN050
     FM290100 24005KT 5SM BR VCTS OVC035CB
     FM290400 26004KT 3SM SHRA BR OVC025=



000
FTUS41 KRLX 281100
TAFBKW
TAF
KBKW 281120Z 2812/2912 20005KT P6SM SCT250
     FM281600 22010G16KT P6SM FEW130
     FM290200 22006KT P6SM SCT040
     FM290400 24006KT 6SM BR VCTS BKN025CB=



000
FTUS41 KRLX 280800 AAA
TAFEKN
TAF AMD
KEKN 280831Z 2809/2906 23007KT 6SM HZ SCT250
     FM281300 23008KT P6SM FEW060
     FM290200 23007KT P6SM VCTS OVC040CB
     FM290500 24006KT 4SM SHRA BR VCTS OVC025CB=



000
FTUS41 KRLX 280800 AAA
TAFCKB
TAF AMD
KCKB 280831Z 2809/2906 20007KT P6SM SCT140 BKN250
     FM281500 21008G15KT P6SM BKN250
     FM281800 21012G20KT P6SM BKN050
     FM290100 23006KT 5SM BR VCTS BKN030CB
     FM290300 25005KT 3SM SHRA BR OVC025=



000
FTUS41 KRLX 280800 AAA
TAFCRW
TAF AMD
KCRW 280831Z 2809/2906 19004KT P6SM SCT140 BKN250
     FM281300 21008KT P6SM SCT120
     FM281600 22012G23KT P6SM SCT040
     FM282300 22011G19KT P6SM BKN050
     FM290100 24005KT 5SM BR VCTS OVC035CB
     FM290400 26004KT 3SM SHRA BR OVC025=



000
FTUS41 KRLX 280800 AAA
TAFPKB
TAF AMD
KPKB 280831Z 2809/2906 19006KT P6SM SCT140 BKN200
     FM281400 21011G19KT P6SM SCT060
     FM281600 22015G25KT P6SM BKN050
     FM282100 22010G16KT 6SM BR BKN035
     FM290100 25006KT 3SM -TSRA BR BKN035CB
     FM290300 27005KT 6SM -SHRA BR BKN045=



000
FTUS41 KRLX 280800 AAA
TAFHTS
TAF AMD
KHTS 280831Z 2809/2906 20008KT P6SM SCT140 BKN200
     FM281500 21013G22KT P6SM SCT040
     FM281800 22013G22KT P6SM BKN045
     FM282300 24008KT 5SM SHRA BR BKN030
     FM290100 25006KT 3SM SHRA BR VCTS BKN025CB
     FM290300 28005KT 5SM BR BKN035=



000
FTUS41 KRLX 280800 AAA
TAFBKW
TAF AMD
KBKW 280831Z 2809/2906 18005KT P6SM SCT250
     FM281600 22010G16KT P6SM FEW130
     FM290200 22006KT P6SM SCT040
     FM290400 24006KT 6SM BR VCTS BKN025CB=



000
FTUS41 KRLX 280500
TAFBKW
TAF
KBKW 280530Z 2806/2906 18005KT P6SM SCT250
     FM281600 22010G16KT P6SM FEW130
     FM290200 22006KT P6SM SCT040
     FM290400 24006KT 6SM BR VCTS BKN025CB=



000
FTUS41 KRLX 280500
TAFCKB
TAF
KCKB 280530Z 2806/2906 20007KT 6SM HZ SCT140 BKN250
     FM281500 21008G15KT P6SM BKN250
     FM281800 21012G20KT P6SM BKN050
     FM290100 23006KT 5SM BR VCTS BKN030CB
     FM290300 25005KT 3SM SHRA BR OVC025=



000
FTUS41 KRLX 280500
TAFPKB
TAF
KPKB 280530Z 2806/2906 19006KT 6SM HZ SCT140 BKN200
     FM281400 21011G19KT P6SM SCT060
     FM281600 22015G25KT P6SM BKN050
     FM282100 22010G16KT 6SM BR BKN035
     FM290100 25006KT 3SM -TSRA BR BKN035CB
     FM290300 27005KT 6SM -SHRA BR BKN045=



000
FTUS41 KRLX 280500
TAFCRW
TAF
KCRW 280530Z 2806/2906 19004KT 6SM HZ SCT140 BKN250
     FM281300 21008KT P6SM SCT120
     FM281600 22012G23KT P6SM SCT040
     FM282300 22011G19KT P6SM BKN050
     FM290100 24005KT 5SM BR VCTS OVC035CB
     FM290400 26004KT 3SM SHRA BR OVC025=



000
FTUS41 KRLX 280500
TAFHTS
TAF
KHTS 280530Z 2806/2906 20008KT 6SM HZ SCT140 BKN200
     FM281500 21013G22KT P6SM SCT040
     FM281800 22013G22KT P6SM BKN045
     FM282300 24008KT 5SM SHRA BR BKN030
     FM290100 25006KT 3SM SHRA BR VCTS BKN025CB
     FM290300 28005KT 5SM BR BKN035=



000
FTUS41 KRLX 280500
TAFEKN
TAF
KEKN 280530Z 2806/2906 VRB03KT 6SM HZ SCT250
     FM280800 23007KT 4SM HZ SCT250
     FM281300 23008KT P6SM FEW060
     FM290200 23007KT P6SM VCTS OVC040CB
     FM290500 24006KT 4SM SHRA BR VCTS OVC025CB=



    US Dept of Commerce
    National Oceanic and Atmospheric Administration
    National Weather Service
    1325 East West Highway
    Silver Spring, MD 20910
    Page Author: NWS Internet Services Team
Disclaimer
Information Quality
Credits
Glossary
Privacy Policy
Freedom of Information Act (FOIA)
About Us
Career Opportunities